Terminal Aerodrome Forecast
Issued by NWS Blacksburg, VA

Current Version | Previous Version | Text Only | Print | Product List | Glossary On
Versions: 1 2 3 4 5 6 7 8 9 10 11 12 13 14 15 16 17 18 19 20 21 22 23 24 25 26 27 28 29 30 31 32 33 34 35 36 37 38 39 40 41 42 43 44 45 46 47 48 49 50
000
FTUS41 KRNK 302322
TAFBLF
TAF
KBLF 302322Z 3100/3124 28006KT P6SM VCSH SCT025 BKN040
      TEMPO 3100/3102 4SM SHRA BKN035
     FM311000 VRB03KT P6SM BKN020
     FM311400 25004KT P6SM BKN040 BKN100
     FM311700 28007KT P6SM VCTS BKN045CB=

USA.gov is the U.S. government's official web portal to all federal, state and local government web resources and services.